KGTF/GTF METAR and TAF weather

Enter ICAO airport designator
Station Type Date Time Source
KGTF METAR 2021/05/12 04:53 UTC NOAA

KGTF 120453Z 16003KT 10SM SCT040 OVC060 08/02 A3020 RMK AO2 SLP230 T00830017 $


Station Type Date Time Source
KGTF Decoded METAR 2021/05/12 04:53 UTC NOAA

GREAT FALLS INTERNATIONAL, MT, United States (KGTF) 47-28N 111-23W 1119M
May 12, 2021 - 12:53 AM EDT / 2021.05.12 0453 UTC
Wind: from the SSE (160 degrees) at 3 MPH (3 KT):0
Visibility: 10 mile(s):0
Sky conditions: overcast
Temperature: 46.9 F (8.3 C)
Dew Point: 35.1 F (1.7 C)
Relative Humidity: 63%
Pressure (altimeter): 30.2 in. Hg (1022 hPa)
ob: KGTF 120453Z 16003KT 10SM SCT040 OVC060 08/02 A3020 RMK AO2 SLP230 T00830017
cycle: 5

Station Type Date Time Source
KGTF TAF 2021/05/12 06:24 UTC NOAA

TAF KGTF 120522Z 1206/1306 28007KT P6SM VCSH SCT040 BKN060
TEMPO 1206/1208 -SHRA BKN040
FM121700 22007KT P6SM SCT090
FM130300 12006KT P6SM VCSH SCT050 BKN090

Example: see airport list